KAND/AND METAR and TAF weather

Enter ICAO airport designator
Station Type Date Time Source
KAND METAR 2020/06/05 11:56 UTC NOAA

KAND 051156Z AUTO 18006KT 3SM BR OVC002 21/20 A2999 RMK AO2 SLP147 70018 T02110200 10211 20206 51009


Station Type Date Time Source
KAND Decoded METAR 2020/06/05 11:56 UTC NOAA

ANDERSON COUNTY AIRPORT, SC, United States (KAND) 34-30N 82-43W 239M
Jun 05, 2020 - 07:56 AM EDT / 2020.06.05 1156 UTC
Wind: from the S (180 degrees) at 7 MPH (6 KT):0
Visibility: 3 mile(s):0
Sky conditions: overcast
Weather: mist
Temperature: 70.0 F (21.1 C)
Dew Point: 68.0 F (20.0 C)
Relative Humidity: 93%
Pressure (altimeter): 29.99 in. Hg (1015 hPa)
Pressure tendency: 0.03 inches (0.9 hPa) higher than three hours ago
ob: KAND 051156Z AUTO 18006KT 3SM BR OVC002 21/20 A2999 RMK AO2 SLP147 70018 T02110200 10211 20206 51009
cycle: 12

Station Type Date Time Source
KAND TAF 2020/06/05 12:42 UTC NOAA

TAF KAND 051139Z 0512/0612 20005KT P6SM OVC003
FM051400 21005KT P6SM BKN015
FM051700 23008KT P6SM VCTS BKN035CB
TEMPO 0520/0524 4SM TSRA BR OVC025CB
FM060000 26003KT P6SM SCT040

Example: see airport list